Aérodrome :
LOGIN :

S'inscrire | Disclaimer

   EN    FR    IT 

 










Légende :    VFR   VFR Marginal   IFR   IFR Intensif   IFR Très Intensif
Visi : 
Plafond : 
>= 8 km
>= 3000ft
5 à 8 km
1000 à 3000 ft
1500m à 5 km
500 à 1000 ft
800 à 1500m
200 à 500 ft
< 800m
< 200 ft
Symboles :   Orages  Brouillard  Fortes neiges  Fortes précipitations  Vent > 20 kt
SIGMETs :   Divers  Orages  Givrage  Turbulence  Onde Orograph.  Cendres Volcan.







- Altitude de l'aérodrome : 2001 ft
- Code IATA : MAD


LEMD - Madrid

DERNIER METAR :
  • 181930Z 04007KT 350V100 9999 SCT060 BKN080 17/12 Q1012 NOSIG

METARs EXPIRÉS :
  • 181900Z 04006KT 360V090 9999 SCT060 BKN080 17/12 Q1012 NOSIG
  • 181830Z 05006KT 010V110 9999 SCT060 BKN080 18/11 Q1012 NOSIG
  • 181800Z 07005KT 010V160 9999 SCT046 BKN080 18/11 Q1011 NOSIG
  • 181730Z 07005KT 010V130 9999 SCT040 BKN050 19/10 Q1011 NOSIG
  • 181700Z 05004KT 9999 FEW047 SCT060 19/10 Q1010 NOSIG

TAF TAF LEMD
Valide du 18 à 18h jusqu'au 20 à 00h UTC


181700Z 1818/1924 05010KT 9999 SCT060 TX20/1915Z TN14/1906Z
TEMPO 1818/1909 4000 RA SHRA FEW045TCU
PROB30
TEMPO 1818/1918 BKN012
PROB40
TEMPO 1823/1905 05015G25KT
TEMPO 1905/1913 04022G32KT
PROB30
TEMPO 1909/1918 4000 RA
Pas de NOTAMs connus pour ce terrain.
3 SIGMETs publiés pour la FIR Madrid (LECM) :
 
Turbulence forte
LECM SIGMET 17 VALID 181900/182200 LEVA
LECM MADRID FIR/UIR SEV TURB OBS AT 1853Z E OF LINE N36 W00450 - N3820 W00230 FL200/340 MOV NE NC=
Orages noyés dans la masse
LECM SIGMET 16 VALID 181800/182000 LEVA
LECM MADRID FIR/UIR EMBD TS OBS AT 1750Z W OF LINE N3920 W00540 - N3750 W00610 TOP FL320 MOV W 20KT NC=
Orages noyés dans la masse
LECM SIGMET 13 VALID 181619/182800 LEVA
LECM MADRID FIR/UIR EMBD TS OBS AT 1619Z WI N3930 W007 - N3950 W00310 - N3830 W003 - N3810 W007 - N3930 W007 TOP FL320 MOV ESE 20KT NC=



MET'MAP, la Météo Aéronautique d'un coup d'oeil ! - Copyright ORBIFLY Décembre 2007 - Disclaimer

ORBIFLY MET'MAP TEAM :

Programmation & Développement : Alexandra Zaïnal
Conception & Développement : Baudouin d'Aumeries
Co-Programmation & Développement : Marc-Olivier Méhu
Soutien technique & logistique : Manuel Goepfert

Contact : metmap@orbifly.com




SOURCES & CREDITS :

   NOAA